Time;durP1;ratioP1;P1;durP2;ratioP2;P2;SDS_P1;SDS_P2;PMS_P1;PMS_P2;Temp;Humidity;BMP_temperature;BMP_pressure;BME280_temperature;BME280_humidity;BME280_pressure;Samples;Min_cycle;Max_cycle;Signal;HPM_P1;HPM_P2
2022/10/22 00:00:22;;;;;;;5.05;3.55;;;;;;;11.02;100.00;96253.78;10500852;28;20191;-82
2022/10/22 00:05:23;;;;;;;7.35;3.75;;;;;;;11.05;100.00;96236.91;10499370;28;20195;-82
2022/10/22 00:10:23;;;;;;;5.13;3.13;;;;;;;11.16;100.00;96252.25;10499326;28;20215;-82
2022/10/22 00:15:24;;;;;;;6.00;3.28;;;;;;;11.43;100.00;96229.16;10498828;28;20198;-82
2022/10/22 00:20:24;;;;;;;4.70;3.08;;;;;;;11.40;100.00;96222.44;10498504;28;20560;-82
2022/10/22 00:25:25;;;;;;;9.05;3.03;;;;;;;11.34;100.00;96203.97;10498349;28;20199;-83
2022/10/22 00:30:25;;;;;;;8.55;3.13;;;;;;;11.22;100.00;96222.75;10479754;28;20683;-83
2022/10/22 00:35:25;;;;;;;5.22;2.97;;;;;;;11.13;100.00;96220.31;10479936;28;20219;-83
2022/10/22 00:40:26;;;;;;;8.17;3.27;;;;;;;11.11;100.00;96224.94;10497664;28;20236;-82
2022/10/22 00:45:28;;;;;;;6.15;3.25;;;;;;;11.00;100.00;96207.78;10497170;28;20188;-82
2022/10/22 00:50:36;;;;;;;6.82;2.88;;;;;;;10.99;100.00;96214.00;10479934;28;20195;-83
2022/10/22 00:55:37;;;;;;;8.27;3.53;;;;;;;10.82;100.00;96226.34;10479144;28;20210;-83
2022/10/22 01:00:38;;;;;;;9.03;3.57;;;;;;;10.85;100.00;96221.59;10477924;28;20240;-82
2022/10/22 01:05:42;;;;;;;9.68;3.30;;;;;;;10.92;100.00;96229.59;10478228;28;20322;-82
2022/10/22 01:10:54;;;;;;;6.67;3.10;;;;;;;10.88;100.00;96221.25;10478258;28;20535;-82
2022/10/22 01:16:00;;;;;;;9.13;3.38;;;;;;;10.91;100.00;96227.16;10478386;28;20184;-82
2022/10/22 01:21:08;;;;;;;4.38;3.20;;;;;;;10.99;100.00;96230.53;10496571;28;20203;-82
2022/10/22 01:26:38;;;;;;;3.47;2.75;;;;;;;10.97;100.00;96232.50;10476666;28;20211;-82
2022/10/22 01:31:43;;;;;;;8.77;3.13;;;;;;;11.03;100.00;96225.78;10494177;28;20227;-82
2022/10/22 01:36:44;;;;;;;4.60;3.05;;;;;;;11.06;100.00;96221.00;10476818;28;20203;-82
2022/10/22 01:41:45;;;;;;;4.88;2.80;;;;;;;11.04;100.00;96223.00;10476066;28;20180;-82
2022/10/22 01:46:47;;;;;;;9.10;3.42;;;;;;;11.07;100.00;96217.41;10493112;28;20212;-82
2022/10/22 01:51:51;;;;;;;4.53;3.03;;;;;;;11.07;100.00;96217.41;10475810;28;20198;-82
2022/10/22 01:57:13;;;;;;;6.13;3.10;;;;;;;11.08;100.00;96218.22;10494093;28;20179;-82
2022/10/22 02:02:42;;;;;;;6.68;3.70;;;;;;;11.18;100.00;96213.56;10494257;28;20271;-81
2022/10/22 02:07:47;;;;;;;4.45;2.95;;;;;;;11.15;100.00;96207.84;10476566;28;20223;-81
2022/10/22 02:12:50;;;;;;;4.10;3.40;;;;;;;11.14;100.00;96195.75;10476134;28;20192;-82
2022/10/22 02:17:51;;;;;;;4.95;3.25;;;;;;;11.14;100.00;96190.50;10493035;28;20187;-82
2022/10/22 02:22:52;;;;;;;10.02;3.30;;;;;;;11.11;100.00;96188.22;10459319;28;20196;-82
2022/10/22 02:28:11;;;;;;;5.18;3.30;;;;;;;11.06;100.00;96199.22;10474789;28;20678;-81
2022/10/22 02:33:40;;;;;;;4.95;3.05;;;;;;;11.19;100.00;96201.28;10475580;28;20230;-82
2022/10/22 02:38:40;;;;;;;7.50;3.90;;;;;;;11.28;100.00;96205.47;10473276;28;20529;-81
2022/10/22 02:43:44;;;;;;;5.18;3.35;;;;;;;11.19;100.00;96206.53;10474601;28;20202;-82
2022/10/22 02:48:44;;;;;;;6.07;3.10;;;;;;;11.12;100.00;96193.28;10474353;28;20207;-81
2022/10/22 02:53:45;;;;;;;11.70;3.60;;;;;;;11.18;100.00;96203.09;10492389;28;20191;-82
2022/10/22 02:58:45;;;;;;;4.88;3.58;;;;;;;11.34;100.00;96196.13;10491793;28;20648;-82
2022/10/22 03:03:45;;;;;;;3.63;3.03;;;;;;;11.43;100.00;96198.50;10491542;28;20613;-82
2022/10/22 03:08:46;;;;;;;5.32;2.80;;;;;;;11.55;100.00;96198.91;10491550;28;20219;-82
2022/10/22 03:13:46;;;;;;;3.63;3.30;;;;;;;11.37;100.00;96209.69;10491198;28;20185;-81
2022/10/22 03:18:47;;;;;;;4.65;3.22;;;;;;;11.31;100.00;96207.75;10491355;28;20553;-81
2022/10/22 03:23:47;;;;;;;3.47;3.10;;;;;;;11.35;100.00;96203.00;10491245;28;20247;-82
2022/10/22 03:28:48;;;;;;;4.95;3.33;;;;;;;11.27;100.00;96209.13;10472429;28;20226;-82
2022/10/22 03:33:48;;;;;;;4.78;3.10;;;;;;;11.43;100.00;96205.56;10491040;28;20594;-81
2022/10/22 03:38:49;;;;;;;7.80;3.17;;;;;;;11.33;100.00;96221.53;10490783;28;20210;-81
2022/10/22 03:43:51;;;;;;;4.68;3.40;;;;;;;11.39;100.00;96215.59;10473235;28;20569;-81
2022/10/22 03:48:52;;;;;;;4.25;3.78;;;;;;;11.24;100.00;96226.00;10473142;28;20782;-82
2022/10/22 03:53:52;;;;;;;6.15;3.20;;;;;;;11.34;100.00;96231.00;10490781;28;20190;-82
2022/10/22 03:58:55;;;;;;;6.22;3.60;;;;;;;11.46;100.00;96226.19;10494780;28;20198;-82
2022/10/22 04:03:56;;;;;;;5.18;3.70;;;;;;;11.20;100.00;96224.69;10496634;28;20268;-82
2022/10/22 04:08:56;;;;;;;9.70;3.80;;;;;;;11.25;100.00;96232.03;10474068;28;20280;-81
2022/10/22 04:13:57;;;;;;;6.05;3.97;;;;;;;11.26;100.00;96231.06;10491522;28;20669;-82
2022/10/22 04:18:57;;;;;;;7.18;3.60;;;;;;;11.41;100.00;96244.25;10456729;28;20606;-83
2022/10/22 04:23:57;;;;;;;4.75;2.95;;;;;;;11.37;100.00;96253.47;10473168;28;20191;-82
2022/10/22 04:28:58;;;;;;;6.63;3.58;;;;;;;11.33;100.00;96245.13;10489743;28;20222;-82
2022/10/22 04:33:59;;;;;;;7.70;4.03;;;;;;;11.48;100.00;96234.69;10472648;28;20647;-82
2022/10/22 04:39:00;;;;;;;5.20;3.30;;;;;;;11.43;100.00;96244.91;10492440;28;21031;-82
2022/10/22 04:44:01;;;;;;;8.32;3.80;;;;;;;11.38;100.00;96245.41;10497487;28;20199;-81
2022/10/22 04:49:02;;;;;;;7.70;3.33;;;;;;;11.35;100.00;96237.09;10499343;28;20229;-82
2022/10/22 04:54:03;;;;;;;5.05;3.30;;;;;;;11.34;100.00;96233.63;10498918;28;20252;-82
2022/10/22 04:59:05;;;;;;;5.90;3.50;;;;;;;11.34;100.00;96232.81;10499340;28;20657;-83
2022/10/22 05:04:07;;;;;;;5.45;3.38;;;;;;;11.39;100.00;96226.09;10498893;28;20187;-81
2022/10/22 05:09:11;;;;;;;7.18;3.45;;;;;;;11.48;100.00;96237.31;10498962;28;20215;-82
2022/10/22 05:14:22;;;;;;;9.20;3.70;;;;;;;11.49;100.00;96236.34;10499363;28;20202;-82
2022/10/22 05:19:25;;;;;;;10.30;3.42;;;;;;;11.42;100.00;96241.47;10480953;28;20260;-82
2022/10/22 05:24:26;;;;;;;4.60;3.03;;;;;;;11.39;100.00;96254.94;10480306;28;20670;-82
2022/10/22 05:29:27;;;;;;;5.45;3.40;;;;;;;11.39;100.00;96259.34;10498180;28;20265;-82
2022/10/22 05:34:27;;;;;;;5.72;3.35;;;;;;;11.28;100.00;96255.31;10498038;28;20187;-82
2022/10/22 05:39:28;;;;;;;11.48;3.80;;;;;;;11.39;100.00;96260.19;10480099;28;20210;-82
2022/10/22 05:44:28;;;;;;;4.15;3.25;;;;;;;11.66;100.00;96260.66;10497899;28;20191;-83
2022/10/22 05:49:29;;;;;;;5.05;3.70;;;;;;;11.56;100.00;96262.69;10496069;28;20690;-82
2022/10/22 05:54:29;;;;;;;6.30;3.22;;;;;;;11.50;100.00;96272.09;10497303;28;20192;-81
2022/10/22 05:59:29;;;;;;;9.02;4.47;;;;;;;11.53;100.00;96276.13;10497170;28;20192;-82
2022/10/22 06:04:30;;;;;;;7.93;4.25;;;;;;;11.58;100.00;96282.50;10479671;28;20598;-82
2022/10/22 06:09:34;;;;;;;10.07;4.50;;;;;;;11.42;100.00;96301.78;10496768;28;20215;-81
2022/10/22 06:14:34;;;;;;;12.48;6.35;;;;;;;11.64;100.00;96312.50;10479120;28;20188;-81
2022/10/22 06:19:35;;;;;;;119.75;40.88;;;;;;;11.57;100.00;96314.16;10496105;28;20195;-80
2022/10/22 06:24:35;;;;;;;12.85;7.25;;;;;;;11.49;100.00;96308.97;10495727;28;20244;-81
2022/10/22 06:29:36;;;;;;;10.18;5.03;;;;;;;11.57;100.00;96325.47;10496097;28;20760;-83
2022/10/22 06:34:36;;;;;;;9.05;4.38;;;;;;;11.65;100.00;96340.34;10496369;28;20203;-83
2022/10/22 06:39:36;;;;;;;11.30;4.82;;;;;;;11.69;100.00;96343.47;10478129;28;20202;-83
2022/10/22 06:44:37;;;;;;;7.45;4.65;;;;;;;11.65;100.00;96356.09;10477445;28;20260;-83
2022/10/22 06:49:37;;;;;;;13.32;6.20;;;;;;;11.71;100.00;96360.66;10494698;28;20559;-82
2022/10/22 06:54:38;;;;;;;7.63;4.22;;;;;;;11.84;100.00;96372.38;10495120;28;20561;-83
2022/10/22 06:59:41;;;;;;;8.93;4.60;;;;;;;11.88;100.00;96373.69;10491776;28;20571;-83
2022/10/22 07:04:44;;;;;;;12.90;11.55;;;;;;;12.08;100.00;96387.22;10493474;28;20191;-84
2022/10/22 07:09:48;;;;;;;13.88;5.53;;;;;;;12.10;100.00;96388.69;10494342;28;20364;-83
2022/10/22 07:14:50;;;;;;;9.60;5.05;;;;;;;12.16;100.00;96394.22;10493121;28;20629;-85
2022/10/22 07:19:50;;;;;;;8.93;4.82;;;;;;;12.12;100.00;96409.53;10474542;28;20210;-85
2022/10/22 07:24:52;;;;;;;6.45;4.38;;;;;;;12.16;100.00;96426.56;10493352;28;20199;-83
2022/10/22 07:29:53;;;;;;;6.65;3.97;;;;;;;12.02;100.00;96414.16;10462999;28;20243;-80
2022/10/22 07:34:53;;;;;;;5.68;3.90;;;;;;;11.91;100.00;96428.47;10479006;28;20275;-80
2022/10/22 07:39:54;;;;;;;8.15;3.53;;;;;;;11.86;100.00;96441.28;10492626;28;20213;-81
2022/10/22 07:44:54;;;;;;;6.60;2.25;;;;;;;11.82;100.00;96453.13;10492354;28;20186;-81
2022/10/22 07:49:55;;;;;;;4.15;1.63;;;;;;;11.80;100.00;96450.66;10474316;28;20666;-84
2022/10/22 07:54:55;;;;;;;4.18;1.75;;;;;;;11.66;100.00;96446.94;10491602;28;20612;-82
2022/10/22 07:59:57;;;;;;;5.40;1.70;;;;;;;11.66;100.00;96441.69;10492981;28;20183;-86
2022/10/22 08:05:00;;;;;;;5.38;2.10;;;;;;;11.65;100.00;96450.56;10475598;28;20925;-86
2022/10/22 08:10:02;;;;;;;3.92;1.90;;;;;;;11.61;100.00;96462.38;10477129;28;20238;-83
2022/10/22 08:15:03;;;;;;;5.25;1.77;;;;;;;11.71;100.00;96470.88;10523213;28;20513;-83
2022/10/22 08:20:04;;;;;;;5.53;4.55;;;;;;;11.72;100.00;96469.88;10572882;28;20190;-83
2022/10/22 08:25:05;;;;;;;6.10;4.60;;;;;;;11.75;100.00;96474.78;10542660;28;20186;-84
2022/10/22 08:30:08;;;;;;;3.38;1.98;;;;;;;11.81;100.00;96469.84;10540958;28;20230;-83
2022/10/22 08:35:09;;;;;;;2.53;1.80;;;;;;;11.83;100.00;96465.25;10493610;28;20675;-82
2022/10/22 08:40:13;;;;;;;2.05;1.95;;;;;;;11.80;100.00;96469.03;10496812;28;20187;-80
2022/10/22 08:45:22;;;;;;;3.20;1.70;;;;;;;11.80;100.00;96466.41;10480966;28;20289;-81
2022/10/22 08:50:39;;;;;;;2.15;1.50;;;;;;;11.86;100.00;96449.16;10480116;28;20215;-84
2022/10/22 08:55:46;;;;;;;1.77;1.67;;;;;;;11.94;100.00;96454.41;10451845;28;20588;-85
2022/10/22 09:01:33;;;;;;;3.78;2.90;;;;;;;12.02;100.00;96450.91;10479450;28;20232;-87
2022/10/22 09:06:39;;;;;;;5.22;2.78;;;;;;;12.08;100.00;96442.34;10474050;28;20215;-86
2022/10/22 09:11:44;;;;;;;1.77;1.52;;;;;;;12.19;100.00;96430.63;10494336;28;20187;-87
2022/10/22 09:17:19;;;;;;;5.78;2.08;;;;;;;12.30;100.00;96435.50;10463201;28;20192;-86
2022/10/22 09:22:42;;;;;;;7.63;2.58;;;;;;;12.27;100.00;96412.22;10469545;28;20183;-86
2022/10/22 09:27:42;;;;;;;5.10;1.90;;;;;;;12.51;100.00;96410.41;10477130;28;20219;-85
2022/10/22 09:32:43;;;;;;;6.40;2.20;;;;;;;12.48;100.00;96409.75;10496553;28;20231;-86
2022/10/22 09:37:59;;;;;;;6.75;1.63;;;;;;;12.84;100.00;96424.09;10472923;28;20630;-86
2022/10/22 09:43:02;;;;;;;2.33;2.13;;;;;;;13.39;100.00;96461.59;10478622;28;20199;-85
2022/10/22 09:48:35;;;;;;;2.38;2.00;;;;;;;13.49;100.00;96442.88;10496345;28;20261;-85
2022/10/22 09:53:39;;;;;;;2.83;2.25;;;;;;;13.50;100.00;96432.16;10478074;28;20203;-86
2022/10/22 09:58:48;;;;;;;2.67;1.60;;;;;;;13.67;100.00;96430.16;10492284;28;20203;-84
2022/10/22 10:03:49;;;;;;;4.72;1.70;;;;;;;14.26;100.00;96431.88;10495877;28;20199;-84
2022/10/22 10:08:51;;;;;;;1.83;1.60;;;;;;;14.20;100.00;96430.00;10477932;28;20675;-87
2022/10/22 10:14:09;;;;;;;2.03;1.50;;;;;;;13.83;100.00;96429.16;10492820;28;20756;-87
2022/10/22 10:19:23;;;;;;;1.55;1.45;;;;;;;14.16;100.00;96427.91;10473470;28;20608;-86
2022/10/22 10:24:44;;;;;;;1.40;1.13;;;;;;;14.90;100.00;96408.34;10482292;28;20191;-85
2022/10/22 10:29:48;;;;;;;3.55;1.00;;;;;;;15.57;100.00;96414.88;10497653;28;20770;-83
2022/10/22 10:35:00;;;;;;;2.25;1.40;;;;;;;16.38;100.00;96408.88;10477666;28;20265;-84
2022/10/22 10:46:44;;;;;;;0.65;0.60;;;;;;;17.86;94.43;96342.53;10478218;28;20706;-80
2022/10/22 10:51:50;;;;;;;1.65;0.65;;;;;;;18.92;89.35;96340.19;10457711;28;20205;-79
2022/10/22 10:57:07;;;;;;;1.35;0.70;;;;;;;19.10;89.34;96358.81;10487270;28;20188;-79
2022/10/22 11:02:46;;;;;;;2.35;0.70;;;;;;;20.98;77.30;96311.91;10475179;28;20249;-78
2022/10/22 11:07:51;;;;;;;0.68;0.50;;;;;;;22.20;71.14;96282.56;10488318;28;20584;-77
2022/10/22 11:12:56;;;;;;;3.42;0.75;;;;;;;20.38;70.62;96291.59;10473730;28;20199;-79
2022/10/22 11:18:03;;;;;;;0.50;0.50;;;;;;;20.36;70.68;96310.44;10490975;28;20187;-79
2022/10/22 11:23:08;;;;;;;0.50;0.45;;;;;;;19.35;75.69;96365.91;10473798;28;20187;-81
2022/10/22 11:28:18;;;;;;;3.40;0.80;;;;;;;19.15;75.48;96361.63;10489497;28;20212;-80
2022/10/22 11:33:21;;;;;;;0.50;0.50;;;;;;;19.03;79.25;96413.81;10490595;28;20239;-80
2022/10/22 11:38:24;;;;;;;1.33;1.00;;;;;;;18.69;80.84;96416.69;10472638;28;20249;-80
2022/10/22 11:43:31;;;;;;;0.65;0.65;;;;;;;17.45;85.88;96427.41;10490672;28;20201;-81
2022/10/22 11:48:36;;;;;;;1.45;0.88;;;;;;;17.22;90.50;96450.91;10492730;28;20610;-83
2022/10/22 11:53:37;;;;;;;0.77;0.77;;;;;;;17.45;88.53;96424.78;10498406;28;20198;-83
2022/10/22 11:58:43;;;;;;;1.83;0.95;;;;;;;15.79;99.00;96457.06;10496139;28;20179;-82
2022/10/22 12:03:53;;;;;;;3.40;0.85;;;;;;;16.34;100.00;96455.25;10479804;28;20191;-82
2022/10/22 12:08:53;;;;;;;2.78;1.02;;;;;;;17.62;94.91;96421.69;10498488;28;20306;-79
2022/10/22 12:14:18;;;;;;;2.13;0.87;;;;;;;16.00;95.55;96419.97;10498429;28;20195;-81
2022/10/22 12:19:22;;;;;;;1.52;0.80;;;;;;;16.62;92.60;96419.91;10498563;28;20920;-81
2022/10/22 12:24:24;;;;;;;1.15;0.90;;;;;;;18.13;89.95;96406.84;10497584;28;20195;-80
2022/10/22 12:29:26;;;;;;;4.60;0.88;;;;;;;16.60;92.48;96419.31;10479868;28;20238;-79
2022/10/22 12:34:28;;;;;;;1.40;0.65;;;;;;;18.54;87.19;96394.97;10497969;28;20183;-80
2022/10/22 12:39:28;;;;;;;0.50;0.50;;;;;;;19.75;78.27;96336.22;10497191;28;20207;-81
2022/10/22 12:44:31;;;;;;;1.10;0.80;;;;;;;19.78;77.46;96354.41;10497384;28;20541;-81
2022/10/22 12:49:38;;;;;;;1.08;0.55;;;;;;;19.22;78.62;96365.03;10478492;28;20211;-80
2022/10/22 12:54:39;;;;;;;1.48;0.65;;;;;;;17.38;79.05;96370.19;10497066;28;20179;-80
2022/10/22 12:59:41;;;;;;;1.35;0.70;;;;;;;19.83;71.45;96304.06;10495906;28;20183;-81
2022/10/22 13:04:41;;;;;;;4.53;0.80;;;;;;;20.24;69.82;96307.75;10495660;28;20194;-80
2022/10/22 13:09:48;;;;;;;0.95;0.70;;;;;;;18.34;77.20;96381.84;10494953;28;20219;-79
2022/10/22 13:14:49;;;;;;;0.70;0.68;;;;;;;19.73;74.16;96364.88;10478308;28;20546;-80
2022/10/22 13:19:52;;;;;;;1.52;0.63;;;;;;;20.86;69.38;96317.25;10495721;28;20241;-80
2022/10/22 13:24:54;;;;;;;3.65;1.20;;;;;;;19.75;69.30;96310.47;10495386;28;20203;-79
2022/10/22 13:29:56;;;;;;;13.45;7.85;;;;;;;19.60;74.68;96395.06;10495288;28;20675;-79
2022/10/22 13:35:00;;;;;;;2.78;1.00;;;;;;;17.64;79.44;96435.53;10493850;28;20190;-82
2022/10/22 13:40:01;;;;;;;3.63;1.00;;;;;;;19.95;73.06;96368.72;10477219;28;20187;-80
2022/10/22 13:45:01;;;;;;;2.58;0.90;;;;;;;19.69;72.07;96363.69;10494953;28;20191;-81
2022/10/22 13:50:03;;;;;;;2.15;0.80;;;;;;;18.79;74.41;96391.50;10494130;28;20592;-80
2022/10/22 13:55:19;;;;;;;4.68;0.95;;;;;;;20.25;69.23;96343.97;10476690;28;20195;-80
2022/10/22 14:00:21;;;;;;;3.78;0.90;;;;;;;19.34;73.19;96382.88;10494550;28;20198;-81
2022/10/22 14:05:21;;;;;;;1.20;0.95;;;;;;;17.70;78.07;96424.09;10493898;28;20191;-80
2022/10/22 14:10:23;;;;;;;1.95;1.05;;;;;;;18.94;75.27;96385.91;10491787;28;20229;-80
2022/10/22 14:15:26;;;;;;;1.10;0.80;;;;;;;20.03;71.56;96358.78;10476062;28;20194;-81
2022/10/22 14:20:29;;;;;;;3.08;0.90;;;;;;;20.17;70.80;96368.22;10475442;28;20187;-81
2022/10/22 14:25:30;;;;;;;0.80;0.80;;;;;;;20.01;68.03;96332.44;10492044;28;20199;-81
2022/10/22 14:30:31;;;;;;;1.65;1.00;;;;;;;19.76;69.64;96362.56;10493368;28;20243;-81
2022/10/22 14:35:32;;;;;;;1.38;1.00;;;;;;;20.35;69.56;96374.50;10492055;28;20215;-80
2022/10/22 14:40:32;;;;;;;2.17;1.30;;;;;;;19.94;71.52;96395.53;10492928;28;20651;-81
2022/10/22 14:45:32;;;;;;;3.13;1.15;;;;;;;21.86;66.00;96350.00;10492050;28;20548;-81
2022/10/22 14:50:33;;;;;;;1.23;1.13;;;;;;;22.88;62.52;96322.63;10491711;28;20628;-81
2022/10/22 14:55:33;;;;;;;1.85;1.00;;;;;;;21.88;62.79;96313.25;10492107;28;20282;-80
2022/10/22 15:00:35;;;;;;;2.17;1.10;;;;;;;20.81;66.26;96363.19;10491730;28;20198;-82
2022/10/22 15:05:42;;;;;;;3.08;0.90;;;;;;;18.35;75.53;96455.06;10474496;28;20262;-83
2022/10/22 15:10:43;;;;;;;3.05;1.10;;;;;;;17.15;82.67;96506.50;10473907;28;20579;-83
2022/10/22 15:15:43;;;;;;;1.80;1.20;;;;;;;16.03;90.50;96525.28;10473356;28;20209;-82
2022/10/22 15:20:43;;;;;;;2.17;1.60;;;;;;;15.14;100.00;96525.84;10457435;28;20202;-84
2022/10/22 15:25:44;;;;;;;1.33;1.23;;;;;;;15.06;100.00;96529.44;10473289;28;20193;-83
2022/10/22 15:30:51;;;;;;;1.20;1.10;;;;;;;14.80;100.00;96545.81;10491056;28;20695;-83
2022/10/22 15:35:51;;;;;;;1.95;1.08;;;;;;;14.30;100.00;96545.63;10472783;28;20223;-83
2022/10/22 15:41:08;;;;;;;140.93;89.20;;;;;;;13.59;100.00;96563.69;10491443;28;20240;-85
2022/10/22 15:46:15;;;;;;;5.00;3.50;;;;;;;13.58;100.00;96569.94;10471184;28;20264;-85
2022/10/22 15:51:17;;;;;;;13.52;12.35;;;;;;;13.61;100.00;96573.03;10433244;28;20710;-83
2022/10/22 15:56:18;;;;;;;4.88;4.35;;;;;;;12.98;100.00;96580.25;10432523;28;20277;-84
2022/10/22 16:01:18;;;;;;;7.68;2.70;;;;;;;13.16;100.00;96582.59;10414773;28;20289;-85
2022/10/22 16:06:19;;;;;;;8.35;2.65;;;;;;;12.90;100.00;96604.00;10448772;28;20689;-84
2022/10/22 16:11:19;;;;;;;10.48;5.20;;;;;;;12.64;100.00;96605.09;10431368;28;20199;-84
2022/10/22 16:16:20;;;;;;;8.57;5.38;;;;;;;12.15;100.00;96614.00;10448518;28;20191;-84
2022/10/22 16:21:21;;;;;;;7.85;4.10;;;;;;;12.12;100.00;96630.91;10431411;28;20229;-83
2022/10/22 16:26:21;;;;;;;5.38;3.50;;;;;;;12.00;100.00;96637.50;10430530;28;20249;-83
2022/10/22 16:31:22;;;;;;;7.22;4.20;;;;;;;11.81;100.00;96636.03;10448113;28;20284;-83
2022/10/22 16:36:23;;;;;;;5.05;3.38;;;;;;;11.56;100.00;96650.97;10451779;28;20588;-83
2022/10/22 16:41:24;;;;;;;6.07;4.90;;;;;;;11.37;100.00;96658.16;10455044;28;20188;-82
2022/10/22 16:46:25;;;;;;;6.10;4.35;;;;;;;11.40;100.00;96665.72;10438159;28;20220;-82
2022/10/22 16:51:26;;;;;;;9.43;5.50;;;;;;;11.17;100.00;96670.75;10494686;28;20252;-85
2022/10/22 16:56:26;;;;;;;16.52;10.02;;;;;;;11.04;100.00;96673.84;10462698;28;20272;-83
2022/10/22 17:01:28;;;;;;;13.63;6.20;;;;;;;10.85;100.00;96674.94;10441688;28;20192;-84
2022/10/22 17:06:28;;;;;;;10.93;6.82;;;;;;;10.61;100.00;96696.66;10458215;28;20212;-83
2022/10/22 17:11:33;;;;;;;12.63;6.23;;;;;;;10.60;100.00;96705.47;10457661;28;20199;-84
2022/10/22 17:16:33;;;;;;;7.38;5.10;;;;;;;10.52;100.00;96705.41;10456257;28;20188;-82
2022/10/22 17:21:34;;;;;;;9.60;5.10;;;;;;;10.46;100.00;96727.00;10457703;28;20188;-84
2022/10/22 17:26:36;;;;;;;7.17;4.50;;;;;;;10.47;100.00;96726.84;10456930;28;20227;-84
2022/10/22 17:31:37;;;;;;;6.23;3.80;;;;;;;10.52;100.00;96732.44;10455701;28;20248;-82
2022/10/22 17:36:37;;;;;;;7.20;4.28;;;;;;;10.35;100.00;96735.94;10438902;28;20266;-84
2022/10/22 17:41:38;;;;;;;7.55;4.50;;;;;;;10.27;100.00;96731.44;10458498;28;20596;-83
2022/10/22 17:46:38;;;;;;;9.13;4.50;;;;;;;10.16;100.00;96735.13;10451126;28;20223;-83
2022/10/22 17:51:39;;;;;;;6.82;3.88;;;;;;;10.35;100.00;96752.50;10456230;28;20196;-84
2022/10/22 17:56:39;;;;;;;6.25;3.70;;;;;;;10.40;100.00;96766.91;10456147;28;20557;-83
2022/10/22 18:01:44;;;;;;;11.95;3.70;;;;;;;10.41;100.00;96765.94;10456710;28;20195;-83
2022/10/22 18:06:45;;;;;;;8.32;4.50;;;;;;;10.12;100.00;96761.78;10438183;28;20207;-83
2022/10/22 18:11:48;;;;;;;9.98;3.80;;;;;;;10.24;100.00;96775.44;10438160;28;20188;-83
2022/10/22 18:16:49;;;;;;;6.40;3.80;;;;;;;10.20;100.00;96774.09;10455243;28;20222;-83
2022/10/22 18:21:49;;;;;;;5.88;3.30;;;;;;;10.66;100.00;96780.00;10437202;28;20196;-82
2022/10/22 18:26:49;;;;;;;8.18;3.28;;;;;;;10.39;100.00;96768.69;10454659;28;20226;-82
2022/10/22 18:31:51;;;;;;;5.90;3.35;;;;;;;10.30;100.00;96774.84;10455260;28;20299;-81
2022/10/22 18:36:51;;;;;;;7.40;3.45;;;;;;;10.47;100.00;96779.22;10436845;28;20204;-81
2022/10/22 18:41:52;;;;;;;4.87;3.67;;;;;;;10.42;100.00;96780.69;10453783;28;20196;-81
2022/10/22 18:46:52;;;;;;;6.60;3.25;;;;;;;10.35;100.00;96765.59;10454018;28;20226;-82
2022/10/22 18:51:52;;;;;;;5.72;3.20;;;;;;;10.32;100.00;96770.25;10454181;28;20199;-82
2022/10/22 18:56:56;;;;;;;6.47;3.90;;;;;;;10.35;100.00;96764.75;10435350;28;20551;-81
2022/10/22 19:01:58;;;;;;;7.85;4.05;;;;;;;10.51;100.00;96766.66;10453201;28;20195;-82
2022/10/22 19:06:58;;;;;;;11.17;2.90;;;;;;;10.47;100.00;96767.94;10434812;28;20683;-82
2022/10/22 19:11:59;;;;;;;8.30;3.10;;;;;;;10.57;100.00;96760.78;10453439;28;20192;-83
2022/10/22 19:16:59;;;;;;;8.98;3.40;;;;;;;10.41;100.00;96765.94;10452902;28;20239;-83
2022/10/22 19:22:00;;;;;;;12.23;3.83;;;;;;;10.32;100.00;96776.34;10453414;28;20188;-83
2022/10/22 19:27:00;;;;;;;7.90;3.20;;;;;;;10.55;100.00;96773.25;10453106;28;20235;-82
2022/10/22 19:32:01;;;;;;;5.68;3.28;;;;;;;10.51;100.00;96782.38;10452135;28;20234;-82
2022/10/22 19:37:01;;;;;;;7.07;3.03;;;;;;;10.55;100.00;96785.50;10452607;28;20692;-82
2022/10/22 19:42:03;;;;;;;5.37;2.90;;;;;;;10.69;100.00;96790.19;10452673;28;20545;-82
2022/10/22 19:47:03;;;;;;;5.40;2.63;;;;;;;10.81;100.00;96798.56;10452756;28;20302;-82
2022/10/22 19:52:03;;;;;;;7.50;2.80;;;;;;;10.96;100.00;96788.34;10451973;28;20218;-80
2022/10/22 19:57:04;;;;;;;3.67;2.65;;;;;;;11.07;100.00;96785.44;10452714;28;20188;-83
2022/10/22 20:02:04;;;;;;;7.55;2.90;;;;;;;11.24;100.00;96788.97;10473688;28;20690;-82
2022/10/22 20:07:05;;;;;;;6.50;2.58;;;;;;;11.18;100.00;96786.94;10494601;28;20211;-83
2022/10/22 20:12:05;;;;;;;4.72;2.35;;;;;;;11.16;100.00;96787.09;10483077;28;20199;-82
2022/10/22 20:17:05;;;;;;;2.60;2.40;;;;;;;11.10;100.00;96784.31;10501305;28;20549;-83
2022/10/22 20:22:06;;;;;;;5.22;2.70;;;;;;;10.90;100.00;96787.16;10483560;28;20195;-82
2022/10/22 20:27:06;;;;;;;5.57;2.75;;;;;;;10.93;100.00;96789.47;10500426;28;20219;-82
2022/10/22 20:32:07;;;;;;;6.45;2.33;;;;;;;10.84;100.00;96808.75;10483009;28;20231;-83
2022/10/22 20:37:07;;;;;;;7.75;2.65;;;;;;;10.82;100.00;96806.28;10483020;28;20218;-82
2022/10/22 20:42:07;;;;;;;3.55;2.42;;;;;;;10.85;100.00;96813.03;10501984;28;20253;-82
2022/10/22 20:47:08;;;;;;;5.80;3.03;;;;;;;10.77;100.00;96820.84;10467786;28;20230;-82
2022/10/22 20:52:08;;;;;;;4.47;2.47;;;;;;;10.76;100.00;96824.44;10503116;28;20635;-81
2022/10/22 20:57:09;;;;;;;3.50;2.30;;;;;;;11.06;100.00;96818.69;10514746;28;20242;-81
2022/10/22 21:02:09;;;;;;;5.38;2.33;;;;;;;10.87;100.00;96809.28;10515299;28;20260;-82
2022/10/22 21:07:10;;;;;;;13.37;2.90;;;;;;;10.74;100.00;96811.50;10479710;28;20215;-82
2022/10/22 21:12:10;;;;;;;8.50;2.60;;;;;;;10.68;100.00;96814.72;10480214;28;20297;-82
2022/10/22 21:17:11;;;;;;;5.43;2.47;;;;;;;10.73;100.00;96819.50;10498466;28;20183;-82
2022/10/22 21:22:11;;;;;;;9.68;2.75;;;;;;;10.57;100.00;96823.66;10480324;28;20695;-82
2022/10/22 21:27:11;;;;;;;4.60;2.03;;;;;;;10.55;100.00;96828.25;10497234;28;20272;-81
2022/10/22 21:32:12;;;;;;;4.30;2.28;;;;;;;10.62;100.00;96836.31;10497451;28;20239;-82
2022/10/22 21:37:12;;;;;;;2.60;2.17;;;;;;;10.47;100.00;96836.84;10497114;28;20667;-80
2022/10/22 21:42:16;;;;;;;3.23;2.10;;;;;;;10.52;100.00;96836.38;10498809;28;20195;-82
2022/10/22 21:47:16;;;;;;;3.93;2.30;;;;;;;10.48;100.00;96828.03;10497090;28;20622;-82
2022/10/22 21:52:17;;;;;;;5.27;1.90;;;;;;;10.47;100.00;96838.66;10478645;28;20237;-82
2022/10/22 21:57:17;;;;;;;5.60;1.93;;;;;;;10.45;100.00;96836.19;10496431;28;20195;-82
2022/10/22 22:02:17;;;;;;;7.93;2.20;;;;;;;10.40;100.00;96837.59;10496415;28;20195;-81
2022/10/22 22:07:18;;;;;;;5.40;2.57;;;;;;;10.33;100.00;96834.78;10496828;28;20699;-81
2022/10/22 22:12:19;;;;;;;11.73;2.07;;;;;;;10.38;100.00;96839.56;10496286;28;20191;-82
2022/10/22 22:17:20;;;;;;;7.97;2.20;;;;;;;10.14;100.00;96838.38;10495973;28;20257;-82
2022/10/22 22:22:21;;;;;;;3.23;1.70;;;;;;;9.97;100.00;96834.78;10496024;28;20221;-81
2022/10/22 22:27:21;;;;;;;5.47;1.93;;;;;;;10.00;100.00;96831.88;10495355;28;20215;-82
2022/10/22 22:32:21;;;;;;;7.80;2.23;;;;;;;9.95;100.00;96840.19;10494854;28;20238;-82
2022/10/22 22:37:22;;;;;;;8.07;2.10;;;;;;;9.83;100.00;96846.56;10477385;28;20672;-82
2022/10/22 22:42:22;;;;;;;9.93;2.50;;;;;;;9.70;100.00;96851.38;10495501;28;20213;-82
2022/10/22 22:47:22;;;;;;;6.00;2.20;;;;;;;9.57;100.00;96847.31;10495069;28;20215;-83
2022/10/22 22:52:23;;;;;;;4.40;2.10;;;;;;;9.49;100.00;96849.81;10468738;28;20254;-81
2022/10/22 22:57:23;;;;;;;2.37;1.80;;;;;;;9.38;100.00;96840.38;10450566;28;20188;-81
2022/10/22 23:02:24;;;;;;;4.60;2.00;;;;;;;9.26;100.00;96845.00;10450392;28;20195;-81
2022/10/22 23:07:24;;;;;;;7.47;2.50;;;;;;;9.23;100.00;96845.28;10450114;28;20265;-81
2022/10/22 23:12:25;;;;;;;6.33;2.30;;;;;;;9.12;100.00;96852.50;10449375;28;20184;-81
2022/10/22 23:17:25;;;;;;;7.57;2.40;;;;;;;9.13;100.00;96859.34;10448669;28;20194;-81
2022/10/22 23:22:25;;;;;;;5.57;2.20;;;;;;;8.98;100.00;96856.38;10449758;28;20191;-81